Terminal Aerodrome Forecast
Issued by NWS

Home | Current Version | Previous Version | Text Only | Print | Product List | Glossary On
Versions: 1 2 3 4 5 6 7 8 9 10 11 12 13 14 15 16
000
FTUS46 KOTX 201139
TAFCOE
TAF
KCOE 201139Z 2012/2112 05005KT P6SM BKN070 BKN100
     FM201500 03011KT P6SM SCT070 SCT100
     FM210400 03014KT P6SM SCT060 OVC100=

USA.gov is the U.S. government's official web portal to all federal, state and local government web resources and services.